sensor_id;sensor_type;location;lat;lon;timestamp;temperature;humidity
423;DHT22;198;48.752;9.180;2022-12-15T00:01:59;1.20;99.90
423;DHT22;198;48.752;9.180;2022-12-15T00:04:43;1.10;99.90
423;DHT22;198;48.752;9.180;2022-12-15T00:07:27;1.10;99.90
423;DHT22;198;48.752;9.180;2022-12-15T00:10:11;1.00;99.90
423;DHT22;198;48.752;9.180;2022-12-15T00:12:55;1.00;99.90
423;DHT22;198;48.752;9.180;2022-12-15T00:15:39;1.10;99.90
423;DHT22;198;48.752;9.180;2022-12-15T00:18:23;1.10;99.90
423;DHT22;198;48.752;9.180;2022-12-15T00:21:07;1.10;99.90
423;DHT22;198;48.752;9.180;2022-12-15T00:23:51;1.10;99.90
423;DHT22;198;48.752;9.180;2022-12-15T00:26:35;1.10;99.90
423;DHT22;198;48.752;9.180;2022-12-15T00:29:19;1.20;99.90
423;DHT22;198;48.752;9.180;2022-12-15T00:32:03;1.10;99.90
423;DHT22;198;48.752;9.180;2022-12-15T00:34:47;1.10;99.90
423;DHT22;198;48.752;9.180;2022-12-15T00:37:31;1.20;99.90
423;DHT22;198;48.752;9.180;2022-12-15T00:40:15;1.30;99.90
423;DHT22;198;48.752;9.180;2022-12-15T00:42:41;1.20;99.90
423;DHT22;198;48.752;9.180;2022-12-15T00:45:06;1.20;99.90
423;DHT22;198;48.752;9.180;2022-12-15T00:47:32;1.20;99.90
423;DHT22;198;48.752;9.180;2022-12-15T00:49:58;1.30;99.90
423;DHT22;198;48.752;9.180;2022-12-15T00:52:42;1.30;99.90
423;DHT22;198;48.752;9.180;2022-12-15T00:55:27;1.20;99.90
423;DHT22;198;48.752;9.180;2022-12-15T00:58:11;1.00;99.90
423;DHT22;198;48.752;9.180;2022-12-15T01:00:55;1.00;99.90
423;DHT22;198;48.752;9.180;2022-12-15T01:03:39;1.00;99.90
423;DHT22;198;48.752;9.180;2022-12-15T01:06:23;1.10;99.90
423;DHT22;198;48.752;9.180;2022-12-15T01:09:09;1.10;99.90
423;DHT22;198;48.752;9.180;2022-12-15T01:11:55;1.20;99.90
423;DHT22;198;48.752;9.180;2022-12-15T01:14:39;1.20;99.90
423;DHT22;198;48.752;9.180;2022-12-15T01:17:23;1.20;99.90
423;DHT22;198;48.752;9.180;2022-12-15T01:20:08;1.30;99.90
423;DHT22;198;48.752;9.180;2022-12-15T01:22:43;1.10;99.90
423;DHT22;198;48.752;9.180;2022-12-15T01:25:09;1.10;99.90
423;DHT22;198;48.752;9.180;2022-12-15T01:27:34;1.10;99.90
423;DHT22;198;48.752;9.180;2022-12-15T01:30:01;1.10;99.90
423;DHT22;198;48.752;9.180;2022-12-15T01:32:26;1.10;99.90
423;DHT22;198;48.752;9.180;2022-12-15T01:34:52;1.10;99.90
423;DHT22;198;48.752;9.180;2022-12-15T01:37:18;1.10;99.90
423;DHT22;198;48.752;9.180;2022-12-15T01:39:43;1.10;99.90
423;DHT22;198;48.752;9.180;2022-12-15T01:42:28;1.20;99.90
423;DHT22;198;48.752;9.180;2022-12-15T01:47:51;1.30;99.90
423;DHT22;198;48.752;9.180;2022-12-15T01:50:18;1.30;99.90
423;DHT22;198;48.752;9.180;2022-12-15T01:52:44;1.30;99.90
423;DHT22;198;48.752;9.180;2022-12-15T01:55:11;1.40;99.90
423;DHT22;198;48.752;9.180;2022-12-15T01:57:37;1.40;99.90
423;DHT22;198;48.752;9.180;2022-12-15T02:00:05;1.50;99.90
423;DHT22;198;48.752;9.180;2022-12-15T02:02:32;1.50;99.90
423;DHT22;198;48.752;9.180;2022-12-15T02:04:59;1.50;99.90
423;DHT22;198;48.752;9.180;2022-12-15T02:07:25;1.50;99.90
423;DHT22;198;48.752;9.180;2022-12-15T02:09:53;1.50;99.90
423;DHT22;198;48.752;9.180;2022-12-15T02:12:50;1.50;99.90
423;DHT22;198;48.752;9.180;2022-12-15T02:20:43;1.50;99.90
423;DHT22;198;48.752;9.180;2022-12-15T02:23:19;1.60;99.90
423;DHT22;198;48.752;9.180;2022-12-15T02:29:25;1.20;99.90
423;DHT22;198;48.752;9.180;2022-12-15T02:37:10;1.30;99.90
423;DHT22;198;48.752;9.180;2022-12-15T02:39:36;1.30;99.90
423;DHT22;198;48.752;9.180;2022-12-15T02:42:02;1.20;99.90
423;DHT22;198;48.752;9.180;2022-12-15T02:44:34;1.20;99.90
423;DHT22;198;48.752;9.180;2022-12-15T02:49:48;1.20;99.90
423;DHT22;198;48.752;9.180;2022-12-15T03:01:00;1.10;99.90
423;DHT22;198;48.752;9.180;2022-12-15T03:03:28;1.10;99.90
423;DHT22;198;48.752;9.180;2022-12-15T03:05:56;1.00;99.90
423;DHT22;198;48.752;9.180;2022-12-15T03:08:22;1.10;99.90
423;DHT22;198;48.752;9.180;2022-12-15T03:10:52;1.10;99.90
423;DHT22;198;48.752;9.180;2022-12-15T03:13:19;1.10;99.90
423;DHT22;198;48.752;9.180;2022-12-15T03:15:45;1.10;99.90
423;DHT22;198;48.752;9.180;2022-12-15T03:18:10;1.00;99.90
423;DHT22;198;48.752;9.180;2022-12-15T03:20:36;1.00;99.90
423;DHT22;198;48.752;9.180;2022-12-15T03:23:01;1.10;99.90
423;DHT22;198;48.752;9.180;2022-12-15T03:25:27;1.00;99.90
423;DHT22;198;48.752;9.180;2022-12-15T03:27:53;1.00;99.90
423;DHT22;198;48.752;9.180;2022-12-15T03:30:18;1.10;99.90
423;DHT22;198;48.752;9.180;2022-12-15T03:32:45;1.10;99.90
423;DHT22;198;48.752;9.180;2022-12-15T03:35:10;1.00;99.90
423;DHT22;198;48.752;9.180;2022-12-15T03:37:37;1.00;99.90
423;DHT22;198;48.752;9.180;2022-12-15T03:40:04;1.00;99.90
423;DHT22;198;48.752;9.180;2022-12-15T03:42:29;1.20;99.90
423;DHT22;198;48.752;9.180;2022-12-15T03:45:24;1.20;99.90
423;DHT22;198;48.752;9.180;2022-12-15T03:47:50;1.10;99.90
423;DHT22;198;48.752;9.180;2022-12-15T03:50:19;1.10;99.90
423;DHT22;198;48.752;9.180;2022-12-15T03:52:52;1.20;99.90
423;DHT22;198;48.752;9.180;2022-12-15T03:55:18;1.20;99.90
423;DHT22;198;48.752;9.180;2022-12-15T03:57:44;1.20;99.90
423;DHT22;198;48.752;9.180;2022-12-15T04:00:12;1.20;99.90
423;DHT22;198;48.752;9.180;2022-12-15T04:02:39;1.20;99.90
423;DHT22;198;48.752;9.180;2022-12-15T04:05:05;1.10;99.90
423;DHT22;198;48.752;9.180;2022-12-15T04:07:31;1.20;99.90
423;DHT22;198;48.752;9.180;2022-12-15T04:09:56;1.20;99.90
423;DHT22;198;48.752;9.180;2022-12-15T04:12:22;1.30;99.90
423;DHT22;198;48.752;9.180;2022-12-15T04:14:47;1.40;99.90
423;DHT22;198;48.752;9.180;2022-12-15T04:17:13;1.40;99.90
423;DHT22;198;48.752;9.180;2022-12-15T04:19:39;1.40;99.90
423;DHT22;198;48.752;9.180;2022-12-15T04:22:23;1.40;99.90
423;DHT22;198;48.752;9.180;2022-12-15T04:24:49;1.30;99.90
423;DHT22;198;48.752;9.180;2022-12-15T04:27:32;1.30;99.90
423;DHT22;198;48.752;9.180;2022-12-15T04:30:17;1.40;99.90
423;DHT22;198;48.752;9.180;2022-12-15T04:33:02;1.30;99.90
423;DHT22;198;48.752;9.180;2022-12-15T04:35:47;1.20;99.90
423;DHT22;198;48.752;9.180;2022-12-15T04:38:31;1.30;99.90
423;DHT22;198;48.752;9.180;2022-12-15T04:41:16;1.30;99.90
423;DHT22;198;48.752;9.180;2022-12-15T04:44:01;1.30;99.90
423;DHT22;198;48.752;9.180;2022-12-15T04:46:45;1.30;99.90
423;DHT22;198;48.752;9.180;2022-12-15T04:49:29;1.20;99.90
423;DHT22;198;48.752;9.180;2022-12-15T04:52:13;1.20;99.90
423;DHT22;198;48.752;9.180;2022-12-15T04:54:57;1.20;99.90
423;DHT22;198;48.752;9.180;2022-12-15T04:57:41;1.10;99.90
423;DHT22;198;48.752;9.180;2022-12-15T05:00:25;1.10;99.90
423;DHT22;198;48.752;9.180;2022-12-15T05:03:09;1.00;99.90
423;DHT22;198;48.752;9.180;2022-12-15T05:05:53;1.00;99.90
423;DHT22;198;48.752;9.180;2022-12-15T05:08:37;1.10;99.90
423;DHT22;198;48.752;9.180;2022-12-15T05:11:21;1.10;99.90
423;DHT22;198;48.752;9.180;2022-12-15T05:14:05;1.00;99.90
423;DHT22;198;48.752;9.180;2022-12-15T05:16:49;0.90;99.90
423;DHT22;198;48.752;9.180;2022-12-15T05:19:34;0.90;99.90
423;DHT22;198;48.752;9.180;2022-12-15T05:22:17;0.80;99.90
423;DHT22;198;48.752;9.180;2022-12-15T05:25:02;0.70;99.90
423;DHT22;198;48.752;9.180;2022-12-15T05:27:46;0.70;99.90
423;DHT22;198;48.752;9.180;2022-12-15T05:30:30;0.80;99.90
423;DHT22;198;48.752;9.180;2022-12-15T05:33:14;0.80;99.90
423;DHT22;198;48.752;9.180;2022-12-15T05:35:40;0.80;99.90
423;DHT22;198;48.752;9.180;2022-12-15T05:38:05;0.90;99.90
423;DHT22;198;48.752;9.180;2022-12-15T05:40:31;0.90;99.90
423;DHT22;198;48.752;9.180;2022-12-15T05:42:57;0.80;99.90
423;DHT22;198;48.752;9.180;2022-12-15T05:45:24;0.80;99.90
423;DHT22;198;48.752;9.180;2022-12-15T05:47:53;0.90;99.90
423;DHT22;198;48.752;9.180;2022-12-15T05:50:19;0.80;99.90
423;DHT22;198;48.752;9.180;2022-12-15T05:52:45;0.70;99.90
423;DHT22;198;48.752;9.180;2022-12-15T05:55:11;0.70;99.90
423;DHT22;198;48.752;9.180;2022-12-15T05:57:37;0.70;99.90
423;DHT22;198;48.752;9.180;2022-12-15T06:00:04;0.70;99.90
423;DHT22;198;48.752;9.180;2022-12-15T06:02:30;0.60;99.90
423;DHT22;198;48.752;9.180;2022-12-15T06:04:55;0.80;99.90
423;DHT22;198;48.752;9.180;2022-12-15T06:07:21;0.80;99.90
423;DHT22;198;48.752;9.180;2022-12-15T06:09:47;0.80;99.90
423;DHT22;198;48.752;9.180;2022-12-15T06:12:12;1.00;99.90
423;DHT22;198;48.752;9.180;2022-12-15T06:14:38;1.00;99.90
423;DHT22;198;48.752;9.180;2022-12-15T06:17:03;1.10;99.90
423;DHT22;198;48.752;9.180;2022-12-15T06:19:29;1.10;99.90
423;DHT22;198;48.752;9.180;2022-12-15T06:21:54;1.00;99.90
423;DHT22;198;48.752;9.180;2022-12-15T06:24:20;1.00;99.90
423;DHT22;198;48.752;9.180;2022-12-15T06:26:46;1.00;99.90
423;DHT22;198;48.752;9.180;2022-12-15T06:29:12;1.00;99.90
423;DHT22;198;48.752;9.180;2022-12-15T06:31:39;1.00;99.90
423;DHT22;198;48.752;9.180;2022-12-15T06:34:07;1.00;99.90
423;DHT22;198;48.752;9.180;2022-12-15T06:36:33;0.90;99.90
423;DHT22;198;48.752;9.180;2022-12-15T06:39:03;0.80;99.90
423;DHT22;198;48.752;9.180;2022-12-15T06:41:29;0.80;99.90
423;DHT22;198;48.752;9.180;2022-12-15T06:43:55;0.90;99.90
423;DHT22;198;48.752;9.180;2022-12-15T06:46:22;0.80;99.90
423;DHT22;198;48.752;9.180;2022-12-15T06:48:47;0.90;99.90
423;DHT22;198;48.752;9.180;2022-12-15T06:51:14;0.90;99.90
423;DHT22;198;48.752;9.180;2022-12-15T06:53:41;1.00;99.90
423;DHT22;198;48.752;9.180;2022-12-15T06:56:18;1.10;99.90
423;DHT22;198;48.752;9.180;2022-12-15T06:58:46;1.20;99.90
423;DHT22;198;48.752;9.180;2022-12-15T07:01:12;1.10;99.90
423;DHT22;198;48.752;9.180;2022-12-15T07:03:38;1.20;99.90
423;DHT22;198;48.752;9.180;2022-12-15T07:06:06;1.30;99.90
423;DHT22;198;48.752;9.180;2022-12-15T07:08:33;1.20;99.90
423;DHT22;198;48.752;9.180;2022-12-15T07:10:58;1.20;99.90
423;DHT22;198;48.752;9.180;2022-12-15T07:13:26;1.20;99.90
423;DHT22;198;48.752;9.180;2022-12-15T07:15:52;1.20;99.90
423;DHT22;198;48.752;9.180;2022-12-15T07:18:17;1.20;99.90
423;DHT22;198;48.752;9.180;2022-12-15T07:20:43;1.20;99.90
423;DHT22;198;48.752;9.180;2022-12-15T07:23:09;1.20;99.90
423;DHT22;198;48.752;9.180;2022-12-15T07:25:35;1.20;99.90
423;DHT22;198;48.752;9.180;2022-12-15T07:28:01;1.10;99.90
423;DHT22;198;48.752;9.180;2022-12-15T07:30:27;1.10;99.90
423;DHT22;198;48.752;9.180;2022-12-15T07:32:52;1.10;99.90
423;DHT22;198;48.752;9.180;2022-12-15T07:35:18;1.20;99.90
423;DHT22;198;48.752;9.180;2022-12-15T07:37:43;1.20;99.90
423;DHT22;198;48.752;9.180;2022-12-15T07:40:09;1.20;99.90
423;DHT22;198;48.752;9.180;2022-12-15T07:42:35;1.20;99.90
423;DHT22;198;48.752;9.180;2022-12-15T07:45:01;1.10;99.90
423;DHT22;198;48.752;9.180;2022-12-15T07:47:26;1.10;99.90
423;DHT22;198;48.752;9.180;2022-12-15T07:49:52;1.20;99.90
423;DHT22;198;48.752;9.180;2022-12-15T07:52:19;1.30;99.90
423;DHT22;198;48.752;9.180;2022-12-15T07:54:44;1.30;99.90
423;DHT22;198;48.752;9.180;2022-12-15T07:57:10;1.50;99.90
423;DHT22;198;48.752;9.180;2022-12-15T07:59:35;1.60;99.90
423;DHT22;198;48.752;9.180;2022-12-15T08:02:01;1.70;99.90
423;DHT22;198;48.752;9.180;2022-12-15T08:04:29;1.80;99.90
423;DHT22;198;48.752;9.180;2022-12-15T08:06:55;1.80;99.90
423;DHT22;198;48.752;9.180;2022-12-15T08:09:20;1.70;99.90
423;DHT22;198;48.752;9.180;2022-12-15T08:11:46;1.70;99.90
423;DHT22;198;48.752;9.180;2022-12-15T08:14:12;1.60;99.90
423;DHT22;198;48.752;9.180;2022-12-15T08:16:38;1.50;99.90
423;DHT22;198;48.752;9.180;2022-12-15T08:19:05;1.50;99.90
423;DHT22;198;48.752;9.180;2022-12-15T08:21:31;1.60;99.90
423;DHT22;198;48.752;9.180;2022-12-15T08:23:58;1.70;99.90
423;DHT22;198;48.752;9.180;2022-12-15T08:26:25;1.90;99.90
423;DHT22;198;48.752;9.180;2022-12-15T08:28:51;2.00;99.90
423;DHT22;198;48.752;9.180;2022-12-15T08:31:19;2.00;99.90
423;DHT22;198;48.752;9.180;2022-12-15T08:33:45;1.90;99.90
423;DHT22;198;48.752;9.180;2022-12-15T08:36:13;1.90;99.90
423;DHT22;198;48.752;9.180;2022-12-15T08:38:40;2.10;99.90
423;DHT22;198;48.752;9.180;2022-12-15T08:41:15;2.10;99.90
423;DHT22;198;48.752;9.180;2022-12-15T08:43:41;2.20;99.90
423;DHT22;198;48.752;9.180;2022-12-15T08:46:07;2.30;99.90
423;DHT22;198;48.752;9.180;2022-12-15T08:48:34;2.40;99.90
423;DHT22;198;48.752;9.180;2022-12-15T08:51:00;2.50;99.90
423;DHT22;198;48.752;9.180;2022-12-15T08:53:26;2.60;99.90
423;DHT22;198;48.752;9.180;2022-12-15T08:55:51;2.60;99.90
423;DHT22;198;48.752;9.180;2022-12-15T08:58:17;2.60;99.90
423;DHT22;198;48.752;9.180;2022-12-15T09:00:42;2.70;99.90
423;DHT22;198;48.752;9.180;2022-12-15T09:03:08;2.70;99.90
423;DHT22;198;48.752;9.180;2022-12-15T09:05:35;2.70;99.90
423;DHT22;198;48.752;9.180;2022-12-15T09:08:00;2.80;99.90
423;DHT22;198;48.752;9.180;2022-12-15T09:10:26;2.90;99.90
423;DHT22;198;48.752;9.180;2022-12-15T09:12:51;3.00;99.90
423;DHT22;198;48.752;9.180;2022-12-15T09:15:17;3.10;99.90
423;DHT22;198;48.752;9.180;2022-12-15T09:17:44;3.20;99.90
423;DHT22;198;48.752;9.180;2022-12-15T09:20:10;3.30;99.90
423;DHT22;198;48.752;9.180;2022-12-15T09:22:36;3.30;99.90
423;DHT22;198;48.752;9.180;2022-12-15T09:25:03;3.30;99.90
423;DHT22;198;48.752;9.180;2022-12-15T09:27:30;3.50;99.90
423;DHT22;198;48.752;9.180;2022-12-15T09:29:56;3.50;99.90
423;DHT22;198;48.752;9.180;2022-12-15T09:32:22;3.70;99.90
423;DHT22;198;48.752;9.180;2022-12-15T09:34:50;3.80;99.90
423;DHT22;198;48.752;9.180;2022-12-15T09:37:15;4.00;99.90
423;DHT22;198;48.752;9.180;2022-12-15T09:39:41;4.20;99.90
423;DHT22;198;48.752;9.180;2022-12-15T09:42:22;4.40;99.90
423;DHT22;198;48.752;9.180;2022-12-15T09:44:50;4.60;99.90
423;DHT22;198;48.752;9.180;2022-12-15T09:47:38;4.60;99.90
423;DHT22;198;48.752;9.180;2022-12-15T09:50:09;4.60;99.90
423;DHT22;198;48.752;9.180;2022-12-15T09:52:48;4.60;99.90
423;DHT22;198;48.752;9.180;2022-12-15T09:55:18;4.50;99.90
423;DHT22;198;48.752;9.180;2022-12-15T10:00:30;4.40;99.90
423;DHT22;198;48.752;9.180;2022-12-15T10:06:05;4.20;99.90
423;DHT22;198;48.752;9.180;2022-12-15T10:08:34;4.30;99.90
423;DHT22;198;48.752;9.180;2022-12-15T10:11:12;4.30;99.90
423;DHT22;198;48.752;9.180;2022-12-15T10:14:48;4.30;99.90
423;DHT22;198;48.752;9.180;2022-12-15T10:19:54;4.20;99.90
423;DHT22;198;48.752;9.180;2022-12-15T10:22:28;4.10;99.90
423;DHT22;198;48.752;9.180;2022-12-15T10:24:55;4.10;99.90
423;DHT22;198;48.752;9.180;2022-12-15T10:30:15;4.10;99.90
423;DHT22;198;48.752;9.180;2022-12-15T10:32:43;4.20;99.90
423;DHT22;198;48.752;9.180;2022-12-15T10:35:20;4.10;99.90
423;DHT22;198;48.752;9.180;2022-12-15T10:37:45;4.20;99.90
423;DHT22;198;48.752;9.180;2022-12-15T10:40:19;4.30;99.90
423;DHT22;198;48.752;9.180;2022-12-15T10:42:48;4.40;99.90
423;DHT22;198;48.752;9.180;2022-12-15T10:45:39;4.30;99.90
423;DHT22;198;48.752;9.180;2022-12-15T10:48:09;4.30;99.90
423;DHT22;198;48.752;9.180;2022-12-15T10:50:40;4.20;99.90
423;DHT22;198;48.752;9.180;2022-12-15T10:53:08;4.00;99.90
423;DHT22;198;48.752;9.180;2022-12-15T10:55:41;4.00;99.90
423;DHT22;198;48.752;9.180;2022-12-15T10:58:19;3.90;99.90
423;DHT22;198;48.752;9.180;2022-12-15T11:00:46;3.90;99.90
423;DHT22;198;48.752;9.180;2022-12-15T11:03:23;4.00;99.90
423;DHT22;198;48.752;9.180;2022-12-15T11:05:52;4.10;99.90
423;DHT22;198;48.752;9.180;2022-12-15T11:08:18;4.20;99.90
423;DHT22;198;48.752;9.180;2022-12-15T11:10:56;4.10;99.90
423;DHT22;198;48.752;9.180;2022-12-15T11:13:40;4.10;99.90
423;DHT22;198;48.752;9.180;2022-12-15T11:16:24;4.00;99.90
423;DHT22;198;48.752;9.180;2022-12-15T11:18:52;3.70;99.90
423;DHT22;198;48.752;9.180;2022-12-15T11:21:29;3.70;99.90
423;DHT22;198;48.752;9.180;2022-12-15T11:24:15;3.80;99.90
423;DHT22;198;48.752;9.180;2022-12-15T11:27:00;3.70;99.90
423;DHT22;198;48.752;9.180;2022-12-15T11:32:02;3.70;99.90
423;DHT22;198;48.752;9.180;2022-12-15T11:34:46;3.80;99.90
423;DHT22;198;48.752;9.180;2022-12-15T11:40:11;4.10;99.90
423;DHT22;198;48.752;9.180;2022-12-15T11:45:57;4.40;99.90
423;DHT22;198;48.752;9.180;2022-12-15T11:48:34;4.50;99.90
423;DHT22;198;48.752;9.180;2022-12-15T11:51:05;4.50;99.90
423;DHT22;198;48.752;9.180;2022-12-15T11:54:05;4.50;99.90
423;DHT22;198;48.752;9.180;2022-12-15T11:56:38;4.50;99.90
423;DHT22;198;48.752;9.180;2022-12-15T12:08:30;4.60;99.90
423;DHT22;198;48.752;9.180;2022-12-15T12:11:11;4.60;99.90
423;DHT22;198;48.752;9.180;2022-12-15T12:19:18;4.90;99.90
423;DHT22;198;48.752;9.180;2022-12-15T12:21:50;5.00;99.90
423;DHT22;198;48.752;9.180;2022-12-15T12:27:02;4.90;99.90
423;DHT22;198;48.752;9.180;2022-12-15T12:29:33;5.00;99.90
423;DHT22;198;48.752;9.180;2022-12-15T12:35:27;5.10;99.90
423;DHT22;198;48.752;9.180;2022-12-15T12:38:05;5.30;99.90
423;DHT22;198;48.752;9.180;2022-12-15T12:40:43;5.40;99.90
423;DHT22;198;48.752;9.180;2022-12-15T12:43:33;5.50;99.90
423;DHT22;198;48.752;9.180;2022-12-15T12:46:07;5.60;99.90
423;DHT22;198;48.752;9.180;2022-12-15T12:48:53;5.60;99.90
423;DHT22;198;48.752;9.180;2022-12-15T12:53:49;5.40;99.90
423;DHT22;198;48.752;9.180;2022-12-15T12:56:36;5.30;99.90
423;DHT22;198;48.752;9.180;2022-12-15T13:07:53;4.90;99.90
423;DHT22;198;48.752;9.180;2022-12-15T13:10:22;4.90;99.90
423;DHT22;198;48.752;9.180;2022-12-15T13:12:51;4.90;99.90
423;DHT22;198;48.752;9.180;2022-12-15T13:17:50;4.50;99.90
423;DHT22;198;48.752;9.180;2022-12-15T13:20:24;4.40;99.90
423;DHT22;198;48.752;9.180;2022-12-15T13:22:51;4.50;99.90
423;DHT22;198;48.752;9.180;2022-12-15T13:25:39;4.30;99.90
423;DHT22;198;48.752;9.180;2022-12-15T13:42:04;4.10;99.90
423;DHT22;198;48.752;9.180;2022-12-15T13:47:10;4.10;99.90
423;DHT22;198;48.752;9.180;2022-12-15T13:49:59;4.00;99.90
423;DHT22;198;48.752;9.180;2022-12-15T13:52:28;4.00;99.90
423;DHT22;198;48.752;9.180;2022-12-15T13:54:59;4.00;99.90
423;DHT22;198;48.752;9.180;2022-12-15T13:57:26;4.00;99.90
423;DHT22;198;48.752;9.180;2022-12-15T14:00:04;4.00;99.90
423;DHT22;198;48.752;9.180;2022-12-15T14:02:35;4.00;99.90
423;DHT22;198;48.752;9.180;2022-12-15T14:07:41;3.80;99.90
423;DHT22;198;48.752;9.180;2022-12-15T14:11:01;3.80;99.90
423;DHT22;198;48.752;9.180;2022-12-15T14:13:29;3.80;99.90
423;DHT22;198;48.752;9.180;2022-12-15T14:16:18;3.90;99.90
423;DHT22;198;48.752;9.180;2022-12-15T14:18:44;3.80;99.90
423;DHT22;198;48.752;9.180;2022-12-15T14:21:21;3.70;99.90
423;DHT22;198;48.752;9.180;2022-12-15T14:23:47;3.70;99.90
423;DHT22;198;48.752;9.180;2022-12-15T14:26:14;3.70;99.90
423;DHT22;198;48.752;9.180;2022-12-15T14:28:42;3.70;99.90
423;DHT22;198;48.752;9.180;2022-12-15T14:31:22;3.70;99.90
423;DHT22;198;48.752;9.180;2022-12-15T14:34:11;3.70;99.90
423;DHT22;198;48.752;9.180;2022-12-15T14:36:40;3.60;99.90
423;DHT22;198;48.752;9.180;2022-12-15T14:39:16;3.50;99.90
423;DHT22;198;48.752;9.180;2022-12-15T14:41:45;3.50;99.90
423;DHT22;198;48.752;9.180;2022-12-15T14:46:56;3.50;99.90
423;DHT22;198;48.752;9.180;2022-12-15T14:49:37;3.60;99.90
423;DHT22;198;48.752;9.180;2022-12-15T14:52:05;3.70;99.90
423;DHT22;198;48.752;9.180;2022-12-15T14:54:37;3.70;99.90
423;DHT22;198;48.752;9.180;2022-12-15T15:00:32;3.70;99.90
423;DHT22;198;48.752;9.180;2022-12-15T15:06:03;3.50;99.90
423;DHT22;198;48.752;9.180;2022-12-15T15:08:33;3.50;99.90
423;DHT22;198;48.752;9.180;2022-12-15T15:11:02;3.40;99.90
423;DHT22;198;48.752;9.180;2022-12-15T15:13:36;3.40;99.90
423;DHT22;198;48.752;9.180;2022-12-15T15:16:05;3.30;99.90
423;DHT22;198;48.752;9.180;2022-12-15T15:18:32;3.30;99.90
423;DHT22;198;48.752;9.180;2022-12-15T15:21:00;3.30;99.90
423;DHT22;198;48.752;9.180;2022-12-15T15:23:28;3.20;99.90
423;DHT22;198;48.752;9.180;2022-12-15T15:26:08;3.20;99.90
423;DHT22;198;48.752;9.180;2022-12-15T15:31:30;3.00;99.90
423;DHT22;198;48.752;9.180;2022-12-15T15:33:58;3.10;99.90
423;DHT22;198;48.752;9.180;2022-12-15T15:36:32;3.10;99.90
423;DHT22;198;48.752;9.180;2022-12-15T15:38:58;3.10;99.90
423;DHT22;198;48.752;9.180;2022-12-15T15:41:32;3.10;99.90
423;DHT22;198;48.752;9.180;2022-12-15T15:43:59;3.20;99.90
423;DHT22;198;48.752;9.180;2022-12-15T15:46:30;3.20;99.90
423;DHT22;198;48.752;9.180;2022-12-15T15:49:17;3.10;99.90
423;DHT22;198;48.752;9.180;2022-12-15T15:51:43;3.00;99.90
423;DHT22;198;48.752;9.180;2022-12-15T15:54:14;3.00;99.90
423;DHT22;198;48.752;9.180;2022-12-15T15:56:41;3.00;99.90
423;DHT22;198;48.752;9.180;2022-12-15T15:59:18;3.00;99.90
423;DHT22;198;48.752;9.180;2022-12-15T16:01:52;3.00;99.90
423;DHT22;198;48.752;9.180;2022-12-15T16:04:20;3.00;99.90
423;DHT22;198;48.752;9.180;2022-12-15T16:06:46;3.00;99.90
423;DHT22;198;48.752;9.180;2022-12-15T16:09:13;3.00;99.90
423;DHT22;198;48.752;9.180;2022-12-15T16:11:39;3.00;99.90
423;DHT22;198;48.752;9.180;2022-12-15T16:14:13;3.00;99.90
423;DHT22;198;48.752;9.180;2022-12-15T16:16:39;3.00;99.90
423;DHT22;198;48.752;9.180;2022-12-15T16:19:06;3.00;99.90
423;DHT22;198;48.752;9.180;2022-12-15T16:21:31;3.00;99.90
423;DHT22;198;48.752;9.180;2022-12-15T16:24:00;3.00;99.90
423;DHT22;198;48.752;9.180;2022-12-15T16:26:31;3.10;99.90
423;DHT22;198;48.752;9.180;2022-12-15T16:28:57;3.00;99.90
423;DHT22;198;48.752;9.180;2022-12-15T16:31:31;3.10;99.90
423;DHT22;198;48.752;9.180;2022-12-15T16:33:57;3.00;99.90
423;DHT22;198;48.752;9.180;2022-12-15T16:36:23;3.00;99.90
423;DHT22;198;48.752;9.180;2022-12-15T16:38:49;3.00;99.90
423;DHT22;198;48.752;9.180;2022-12-15T16:41:16;3.00;99.90
423;DHT22;198;48.752;9.180;2022-12-15T16:43:42;3.00;99.90
423;DHT22;198;48.752;9.180;2022-12-15T16:46:10;3.00;99.90
423;DHT22;198;48.752;9.180;2022-12-15T16:48:37;3.00;99.90
423;DHT22;198;48.752;9.180;2022-12-15T16:51:06;3.10;99.90
423;DHT22;198;48.752;9.180;2022-12-15T16:53:35;3.00;99.90
423;DHT22;198;48.752;9.180;2022-12-15T16:56:06;3.00;99.90
423;DHT22;198;48.752;9.180;2022-12-15T16:58:34;3.00;99.90
423;DHT22;198;48.752;9.180;2022-12-15T17:01:00;3.00;99.90
423;DHT22;198;48.752;9.180;2022-12-15T17:03:25;2.90;99.90
423;DHT22;198;48.752;9.180;2022-12-15T17:05:54;2.90;99.90
423;DHT22;198;48.752;9.180;2022-12-15T17:08:28;2.90;99.90
423;DHT22;198;48.752;9.180;2022-12-15T17:10:57;2.90;99.90
423;DHT22;198;48.752;9.180;2022-12-15T17:13:33;2.90;99.90
423;DHT22;198;48.752;9.180;2022-12-15T17:15:59;2.90;99.90
423;DHT22;198;48.752;9.180;2022-12-15T17:18:25;3.00;99.90
423;DHT22;198;48.752;9.180;2022-12-15T17:21:01;2.90;99.90
423;DHT22;198;48.752;9.180;2022-12-15T17:23:28;2.90;99.90
423;DHT22;198;48.752;9.180;2022-12-15T17:25:54;2.80;99.90
423;DHT22;198;48.752;9.180;2022-12-15T17:28:23;2.70;99.90
423;DHT22;198;48.752;9.180;2022-12-15T17:30:49;2.70;99.90
423;DHT22;198;48.752;9.180;2022-12-15T17:33:23;2.70;99.90
423;DHT22;198;48.752;9.180;2022-12-15T17:35:56;2.70;99.90
423;DHT22;198;48.752;9.180;2022-12-15T17:38:23;2.60;99.90
423;DHT22;198;48.752;9.180;2022-12-15T17:40:50;2.60;99.90
423;DHT22;198;48.752;9.180;2022-12-15T17:43:18;2.60;99.90
423;DHT22;198;48.752;9.180;2022-12-15T17:45:44;2.60;99.90
423;DHT22;198;48.752;9.180;2022-12-15T17:48:11;2.50;99.90
423;DHT22;198;48.752;9.180;2022-12-15T17:50:37;2.60;99.90
423;DHT22;198;48.752;9.180;2022-12-15T17:53:04;2.50;99.90
423;DHT22;198;48.752;9.180;2022-12-15T17:55:30;2.50;99.90
423;DHT22;198;48.752;9.180;2022-12-15T17:57:57;2.60;99.90
423;DHT22;198;48.752;9.180;2022-12-15T18:00:30;2.60;99.90
423;DHT22;198;48.752;9.180;2022-12-15T18:02:58;2.60;99.90
423;DHT22;198;48.752;9.180;2022-12-15T18:05:25;2.50;99.90
423;DHT22;198;48.752;9.180;2022-12-15T18:07:57;2.50;99.90
423;DHT22;198;48.752;9.180;2022-12-15T18:10:27;2.60;99.90
423;DHT22;198;48.752;9.180;2022-12-15T18:12:53;2.60;99.90
423;DHT22;198;48.752;9.180;2022-12-15T18:15:22;2.70;99.90
423;DHT22;198;48.752;9.180;2022-12-15T18:17:48;2.70;99.90
423;DHT22;198;48.752;9.180;2022-12-15T18:20:14;2.80;99.90
423;DHT22;198;48.752;9.180;2022-12-15T18:22:40;2.80;99.90
423;DHT22;198;48.752;9.180;2022-12-15T18:25:17;2.80;99.90
423;DHT22;198;48.752;9.180;2022-12-15T18:27:42;2.90;99.90
423;DHT22;198;48.752;9.180;2022-12-15T18:30:13;2.90;99.90
423;DHT22;198;48.752;9.180;2022-12-15T18:32:40;2.90;99.90
423;DHT22;198;48.752;9.180;2022-12-15T18:35:14;2.90;99.90
423;DHT22;198;48.752;9.180;2022-12-15T18:37:41;2.90;99.90
423;DHT22;198;48.752;9.180;2022-12-15T18:40:12;2.90;99.90
423;DHT22;198;48.752;9.180;2022-12-15T18:42:38;2.90;99.90
423;DHT22;198;48.752;9.180;2022-12-15T18:45:16;2.90;99.90
423;DHT22;198;48.752;9.180;2022-12-15T18:47:42;2.90;99.90
423;DHT22;198;48.752;9.180;2022-12-15T18:50:16;2.70;99.90
423;DHT22;198;48.752;9.180;2022-12-15T18:52:42;2.70;99.90
423;DHT22;198;48.752;9.180;2022-12-15T18:55:17;2.60;99.90
423;DHT22;198;48.752;9.180;2022-12-15T18:57:43;2.60;99.90
423;DHT22;198;48.752;9.180;2022-12-15T19:02:37;2.70;99.90
423;DHT22;198;48.752;9.180;2022-12-15T19:05:03;2.70;99.90
423;DHT22;198;48.752;9.180;2022-12-15T19:07:29;2.70;99.90
423;DHT22;198;48.752;9.180;2022-12-15T19:09:54;2.70;99.90
423;DHT22;198;48.752;9.180;2022-12-15T19:12:20;2.70;99.90
423;DHT22;198;48.752;9.180;2022-12-15T19:14:48;2.80;99.90
423;DHT22;198;48.752;9.180;2022-12-15T19:17:21;2.80;99.90